createdAt,value
2023-03-26T00:00:44.375Z,2.37
2023-03-26T00:03:15.125Z,2.50
2023-03-26T00:05:46.884Z,2.33
2023-03-26T00:08:18.016Z,2.73
2023-03-26T00:10:51.319Z,3.07
2023-03-26T00:13:21.299Z,2.87
2023-03-26T00:15:53.199Z,2.80
2023-03-26T00:18:25.238Z,2.70
2023-03-26T00:20:55.532Z,3.10
2023-03-26T00:23:27.342Z,2.93
2023-03-26T00:26:01.236Z,3.57
2023-03-26T00:28:31.653Z,3.33
2023-03-26T00:31:03.378Z,3.13
2023-03-26T00:33:38.757Z,2.87
2023-03-26T00:36:12.145Z,3.67
2023-03-26T00:38:42.318Z,3.23
2023-03-26T00:41:24.865Z,3.30
2023-03-26T00:43:58.226Z,3.57
2023-03-26T00:46:30.415Z,3.53
2023-03-26T00:49:02.412Z,3.63
2023-03-26T00:51:33.529Z,3.27
2023-03-26T00:54:03.604Z,3.77
2023-03-26T00:56:36.408Z,3.57
2023-03-26T00:59:06.449Z,2.83
2023-03-26T01:01:36.866Z,3.27
2023-03-26T01:04:32.446Z,3.13
2023-03-26T01:07:06.014Z,3.00
2023-03-26T01:09:43.135Z,3.60
2023-03-26T01:12:18.917Z,3.20
2023-03-26T01:14:51.096Z,3.00
2023-03-26T01:17:22.271Z,3.10
2023-03-26T01:19:57.459Z,2.63
2023-03-26T01:22:29.558Z,3.13
2023-03-26T01:25:02.044Z,2.77
2023-03-26T01:27:39.426Z,2.73
2023-03-26T01:30:16.222Z,3.47
2023-03-26T01:33:01.140Z,2.87
2023-03-26T01:35:43.432Z,3.33
2023-03-26T01:38:26.496Z,2.87
2023-03-26T01:41:03.693Z,2.43
2023-03-26T01:43:39.726Z,2.80
2023-03-26T01:46:12.599Z,3.00
2023-03-26T01:48:45.278Z,2.63
2023-03-26T01:51:17.138Z,3.00
2023-03-26T01:53:50.023Z,2.60
2023-03-26T01:56:31.650Z,2.53
2023-03-26T01:59:17.120Z,2.77
2023-03-26T02:01:55.064Z,2.87
2023-03-26T02:04:29.295Z,2.90
2023-03-26T02:07:05.986Z,2.30
2023-03-26T02:09:46.038Z,2.93
2023-03-26T02:12:20.452Z,2.60
2023-03-26T02:14:50.540Z,3.63
2023-03-26T02:17:24.703Z,3.00
2023-03-26T02:19:54.715Z,2.87
2023-03-26T02:22:30.374Z,2.90
2023-03-26T02:25:00.194Z,3.07
2023-03-26T02:27:34.073Z,2.93
2023-03-26T02:30:04.121Z,2.53
2023-03-26T02:32:35.285Z,4.13
2023-03-26T02:35:05.688Z,4.40
2023-03-26T02:37:36.995Z,3.60
2023-03-26T02:40:11.536Z,4.80
2023-03-26T02:42:44.287Z,4.10
2023-03-26T02:45:14.168Z,3.73
2023-03-26T02:47:46.278Z,4.03
2023-03-26T02:50:16.681Z,3.77
2023-03-26T02:52:49.533Z,4.23
2023-03-26T02:55:19.871Z,3.90
2023-03-26T02:57:52.453Z,4.10
2023-03-26T03:00:23.146Z,3.83
2023-03-26T03:02:54.386Z,3.87
2023-03-26T03:05:27.120Z,3.93
2023-03-26T03:07:58.439Z,4.17
2023-03-26T03:10:32.889Z,3.23
2023-03-26T03:13:08.092Z,3.07
2023-03-26T03:15:38.462Z,2.70
2023-03-26T03:18:08.861Z,3.13
2023-03-26T03:20:38.733Z,3.30
2023-03-26T03:23:08.598Z,2.77
2023-03-26T03:25:38.729Z,3.10
2023-03-26T03:28:11.985Z,3.37
2023-03-26T03:30:42.357Z,2.90
2023-03-26T03:33:13.298Z,3.97
2023-03-26T03:35:43.392Z,3.27
2023-03-26T03:38:13.741Z,3.50
2023-03-26T03:40:43.928Z,3.17
2023-03-26T03:43:16.515Z,3.33
2023-03-26T03:45:47.661Z,3.97
2023-03-26T03:48:19.266Z,3.13
2023-03-26T03:50:49.358Z,3.47
2023-03-26T03:53:19.268Z,3.40
2023-03-26T03:55:53.549Z,3.40
2023-03-26T03:58:28.465Z,2.97
2023-03-26T04:01:04.740Z,3.40
2023-03-26T04:03:39.312Z,3.23
2023-03-26T04:06:11.315Z,3.17
2023-03-26T04:08:41.679Z,2.57
2023-03-26T04:11:11.614Z,2.67
2023-03-26T04:13:44.487Z,2.77
2023-03-26T04:16:14.636Z,2.33
2023-03-26T04:18:45.484Z,2.57
2023-03-26T04:21:16.310Z,2.97
2023-03-26T04:23:46.097Z,2.53
2023-03-26T04:26:20.066Z,2.70
2023-03-26T04:28:55.962Z,2.90
2023-03-26T04:31:29.649Z,2.97
2023-03-26T04:34:13.741Z,2.30
2023-03-26T04:36:46.528Z,2.83
2023-03-26T04:39:16.714Z,2.57
2023-03-26T04:41:47.171Z,3.00
2023-03-26T04:44:22.610Z,2.07
2023-03-26T04:46:53.120Z,2.17
2023-03-26T04:49:23.102Z,2.20
2023-03-26T04:51:53.057Z,2.27
2023-03-26T04:54:26.860Z,2.67
2023-03-26T04:57:02.828Z,2.17
2023-03-26T04:59:37.530Z,2.60
2023-03-26T05:02:09.992Z,2.40
2023-03-26T05:04:44.098Z,2.40
2023-03-26T05:07:14.989Z,2.80
2023-03-26T05:09:44.995Z,1.90
2023-03-26T05:12:15.233Z,2.10
2023-03-26T05:14:47.749Z,2.30
2023-03-26T05:17:21.608Z,1.87
2023-03-26T05:19:52.506Z,2.13
2023-03-26T05:22:22.378Z,2.53
2023-03-26T05:24:52.632Z,2.47
2023-03-26T05:27:23.071Z,2.13
2023-03-26T05:29:55.852Z,1.87
2023-03-26T05:32:25.749Z,2.53
2023-03-26T05:34:55.717Z,2.47
2023-03-26T05:37:26.135Z,1.90
2023-03-26T05:39:56.878Z,2.40
2023-03-26T05:42:27.218Z,2.27
2023-03-26T05:44:59.845Z,1.90
2023-03-26T05:47:30.371Z,2.20
2023-03-26T05:50:00.428Z,1.63
2023-03-26T05:52:30.661Z,2.60
2023-03-26T05:55:00.521Z,2.30
2023-03-26T05:57:32.930Z,2.00
2023-03-26T06:00:06.480Z,2.27
2023-03-26T06:02:36.487Z,2.33
2023-03-26T06:05:08.085Z,2.43
2023-03-26T06:07:38.015Z,2.23
2023-03-26T06:10:09.633Z,2.67
2023-03-26T06:12:39.941Z,2.30
2023-03-26T06:15:14.561Z,1.90
2023-03-26T06:17:47.383Z,1.90
2023-03-26T06:20:18.001Z,1.90
2023-03-26T06:22:48.132Z,2.40
2023-03-26T06:25:18.164Z,2.03
2023-03-26T06:27:48.522Z,2.07
2023-03-26T06:30:21.869Z,2.53
2023-03-26T06:32:52.017Z,2.20
2023-03-26T06:35:22.207Z,1.73
2023-03-26T06:37:52.126Z,2.97
2023-03-26T06:40:22.083Z,2.30
2023-03-26T06:43:09.054Z,2.07
2023-03-26T06:45:43.290Z,2.00
2023-03-26T06:48:13.345Z,2.37
2023-03-26T06:50:43.381Z,2.30
2023-03-26T06:53:14.102Z,2.70
2023-03-26T06:55:44.150Z,2.23
2023-03-26T06:58:14.842Z,2.07
2023-03-26T07:00:47.436Z,2.50
2023-03-26T07:03:17.721Z,2.20
2023-03-26T07:05:47.697Z,1.80
2023-03-26T07:08:18.110Z,2.20
2023-03-26T07:10:48.377Z,2.77
2023-03-26T07:13:18.291Z,2.20
2023-03-26T07:15:51.342Z,2.20
2023-03-26T07:18:21.414Z,2.47
2023-03-26T07:20:55.051Z,2.70
2023-03-26T07:23:25.758Z,2.50
2023-03-26T07:25:56.387Z,2.43
2023-03-26T07:28:32.986Z,1.97
2023-03-26T07:31:28.143Z,2.23
2023-03-26T07:34:05.045Z,2.70
2023-03-26T07:36:39.302Z,2.63
2023-03-26T07:39:22.160Z,2.13
2023-03-26T07:41:54.742Z,2.77
2023-03-26T07:44:47.992Z,2.10
2023-03-26T07:47:30.227Z,2.80
2023-03-26T07:50:01.174Z,3.23
2023-03-26T07:52:31.705Z,2.60
2023-03-26T07:55:02.109Z,2.57
2023-03-26T07:57:47.700Z,2.73
2023-03-26T08:00:22.344Z,3.00
2023-03-26T08:03:17.104Z,2.47
2023-03-26T08:05:53.365Z,2.23
2023-03-26T08:08:33.579Z,2.87
2023-03-26T08:11:15.933Z,2.70
2023-03-26T08:14:07.048Z,2.80
2023-03-26T08:16:41.993Z,2.83
2023-03-26T08:19:29.633Z,2.80
2023-03-26T08:22:06.413Z,2.80
2023-03-26T08:24:43.922Z,2.67
2023-03-26T08:27:23.792Z,2.47
2023-03-26T08:29:58.301Z,2.80
2023-03-26T08:32:32.285Z,2.33
2023-03-26T08:35:05.452Z,3.07
2023-03-26T08:37:35.353Z,2.60
2023-03-26T08:40:06.902Z,2.70
2023-03-26T08:42:57.627Z,2.83
2023-03-26T08:46:09.998Z,2.90
2023-03-26T08:49:04.106Z,3.03
2023-03-26T08:52:04.576Z,3.07
2023-03-26T08:55:13.250Z,2.77
2023-03-26T08:58:23.775Z,2.93
2023-03-26T09:01:20.804Z,2.37
2023-03-26T09:04:08.413Z,2.73
2023-03-26T09:07:10.862Z,2.27
2023-03-26T09:10:17.521Z,2.67
2023-03-26T09:13:16.758Z,2.90
2023-03-26T09:16:24.454Z,2.30
2023-03-26T09:19:32.303Z,2.40
2023-03-26T09:22:39.411Z,2.40
2023-03-26T09:25:32.437Z,2.60
2023-03-26T09:28:41.113Z,3.60
2023-03-26T09:31:30.962Z,2.67
2023-03-26T09:34:14.205Z,2.17
2023-03-26T09:37:13.935Z,2.03
2023-03-26T09:39:55.836Z,2.10
2023-03-26T09:42:40.752Z,2.07
2023-03-26T09:45:34.892Z,2.07
2023-03-26T09:48:41.683Z,2.23
2023-03-26T09:51:40.984Z,1.93
2023-03-26T09:54:27.784Z,1.83
2023-03-26T09:57:06.370Z,2.07
2023-03-26T10:00:05.294Z,2.03
2023-03-26T10:02:48.781Z,2.40
2023-03-26T10:05:43.471Z,2.47
2023-03-26T10:08:33.952Z,2.00
2023-03-26T10:11:14.123Z,1.60
2023-03-26T10:13:58.580Z,1.00
2023-03-26T10:16:38.066Z,0.87
2023-03-26T10:19:25.004Z,1.00
2023-03-26T10:22:03.958Z,0.73
2023-03-26T10:24:51.491Z,0.70
2023-03-26T10:27:40.426Z,0.87
2023-03-26T10:30:58.546Z,1.20
2023-03-26T10:33:38.809Z,0.70
2023-03-26T10:36:31.280Z,0.50
2023-03-26T10:39:36.740Z,1.00
2023-03-26T10:42:35.034Z,1.00
2023-03-26T10:45:30.220Z,1.40
2023-03-26T10:48:27.515Z,1.00
2023-03-26T10:51:16.644Z,1.40
2023-03-26T10:53:52.893Z,0.90
2023-03-26T10:56:29.811Z,1.00
2023-03-26T10:59:00.021Z,1.10
2023-03-26T11:01:41.208Z,0.90
2023-03-26T11:04:25.665Z,0.90
2023-03-26T11:07:08.702Z,1.60
2023-03-26T11:09:47.773Z,1.33
2023-03-26T11:12:28.444Z,0.80
2023-03-26T11:15:10.003Z,1.10
2023-03-26T11:17:49.009Z,0.70
2023-03-26T11:20:23.810Z,0.90
2023-03-26T11:23:16.666Z,0.80
2023-03-26T11:25:59.090Z,0.70
2023-03-26T11:29:03.737Z,0.63
2023-03-26T11:32:00.332Z,0.70
2023-03-26T11:34:34.419Z,0.70
2023-03-26T11:37:08.789Z,0.50
2023-03-26T11:39:48.981Z,0.50
2023-03-26T11:42:20.822Z,0.60
2023-03-26T11:44:56.679Z,0.80
2023-03-26T11:47:32.652Z,0.40
2023-03-26T11:50:05.233Z,1.00
2023-03-26T11:52:35.116Z,0.50
2023-03-26T11:55:08.314Z,0.77
2023-03-26T11:57:40.694Z,0.50
2023-03-26T12:00:18.166Z,0.70
2023-03-26T12:02:49.396Z,0.70
2023-03-26T12:05:25.172Z,0.70
2023-03-26T12:08:00.481Z,0.97
2023-03-26T12:10:40.296Z,1.00
2023-03-26T12:13:29.887Z,0.90
2023-03-26T12:16:08.213Z,0.70
2023-03-26T12:18:38.436Z,0.90
2023-03-26T12:21:10.832Z,0.60
2023-03-26T12:23:56.361Z,0.60
2023-03-26T12:26:39.831Z,0.80
2023-03-26T12:29:12.737Z,0.60
2023-03-26T12:31:53.508Z,0.70
2023-03-26T12:34:25.375Z,0.67
2023-03-26T12:36:57.665Z,0.60
2023-03-26T12:40:08.890Z,0.50
2023-03-26T12:44:48.224Z,0.60
2023-03-26T12:45:25.280Z,0.53
2023-03-26T12:48:02.549Z,0.50
2023-03-26T12:50:43.832Z,0.60
2023-03-26T12:53:34.259Z,0.63
2023-03-26T12:56:10.445Z,0.70
2023-03-26T12:59:11.994Z,0.70
2023-03-26T13:01:53.127Z,0.50
2023-03-26T13:05:02.330Z,0.50
2023-03-26T13:07:50.995Z,0.70
2023-03-26T13:10:49.709Z,0.50
2023-03-26T13:13:41.405Z,0.60
2023-03-26T13:16:23.936Z,0.60
2023-03-26T13:18:58.685Z,0.60
2023-03-26T13:21:38.245Z,0.90
2023-03-26T13:24:16.076Z,0.87
2023-03-26T13:27:02.128Z,0.90
2023-03-26T13:29:40.937Z,1.20
2023-03-26T13:32:22.056Z,1.07
2023-03-26T13:35:09.596Z,0.80
2023-03-26T13:37:46.676Z,1.00
2023-03-26T13:40:28.351Z,1.30
2023-03-26T13:43:18.792Z,1.97
2023-03-26T13:45:57.992Z,2.30
2023-03-26T13:48:33.328Z,2.03
2023-03-26T13:51:10.560Z,1.90
2023-03-26T13:53:47.778Z,1.70
2023-03-26T13:56:20.817Z,1.00
2023-03-26T13:58:56.467Z,1.20
2023-03-26T14:01:35.251Z,1.00
2023-03-26T14:04:17.997Z,1.00
2023-03-26T14:06:57.731Z,1.20
2023-03-26T14:09:33.822Z,1.10
2023-03-26T14:12:29.276Z,0.90
2023-03-26T14:15:05.289Z,1.50
2023-03-26T14:17:42.046Z,1.37
2023-03-26T14:20:37.881Z,1.67
2023-03-26T14:23:25.089Z,1.77
2023-03-26T14:26:11.611Z,2.00
2023-03-26T14:29:41.002Z,1.70
2023-03-26T14:32:40.967Z,1.10
2023-03-26T14:35:27.526Z,1.50
2023-03-26T14:38:33.316Z,1.60
2023-03-26T14:41:23.210Z,1.20
2023-03-26T14:44:31.013Z,1.30
2023-03-26T14:47:23.574Z,1.60
2023-03-26T14:50:42.833Z,1.03
2023-03-26T14:53:28.896Z,1.73
2023-03-26T14:56:36.475Z,1.53
2023-03-26T14:59:30.171Z,1.40
2023-03-26T15:02:42.711Z,2.07
2023-03-26T15:05:44.573Z,1.30
2023-03-26T15:08:51.676Z,1.00
2023-03-26T15:11:29.795Z,1.20
2023-03-26T15:14:17.752Z,1.20
2023-03-26T15:17:16.862Z,0.93
2023-03-26T15:20:34.290Z,1.30
2023-03-26T15:23:36.865Z,1.40
2023-03-26T15:26:46.713Z,1.30
2023-03-26T15:30:04.182Z,1.10
2023-03-26T15:33:06.784Z,1.30
2023-03-26T15:36:11.614Z,1.07
2023-03-26T15:39:15.013Z,1.63
2023-03-26T15:41:54.274Z,1.50
2023-03-26T15:44:43.808Z,1.63
2023-03-26T15:47:45.334Z,1.60
2023-03-26T15:50:28.038Z,2.20
2023-03-26T15:53:05.262Z,1.90
2023-03-26T15:55:43.962Z,2.27
2023-03-26T15:58:21.627Z,2.40
2023-03-26T16:01:02.939Z,2.27
2023-03-26T16:03:43.370Z,2.67
2023-03-26T16:06:41.588Z,3.07
2023-03-26T16:09:38.955Z,3.63
2023-03-26T16:12:32.505Z,3.67
2023-03-26T16:15:38.354Z,3.27
2023-03-26T16:18:28.561Z,2.93
2023-03-26T16:21:07.159Z,3.77
2023-03-26T16:23:54.856Z,3.33
2023-03-26T16:26:29.080Z,2.90
2023-03-26T16:29:19.186Z,3.33
2023-03-26T16:32:28.837Z,2.90
2023-03-26T16:35:03.892Z,2.67
2023-03-26T16:37:50.473Z,3.50
2023-03-26T16:41:07.796Z,2.43
2023-03-26T16:43:47.566Z,3.00
2023-03-26T16:46:31.864Z,2.93
2023-03-26T16:49:13.911Z,3.10
2023-03-26T16:52:07.959Z,2.73
2023-03-26T16:54:52.818Z,2.80
2023-03-26T16:57:30.706Z,2.60
2023-03-26T17:00:33.652Z,3.03
2023-03-26T17:03:26.453Z,2.93
2023-03-26T17:06:12.434Z,3.50
2023-03-26T17:08:57.891Z,3.30
2023-03-26T17:11:40.223Z,3.03
2023-03-26T17:14:22.792Z,3.20
2023-03-26T17:17:12.088Z,3.50
2023-03-26T17:19:49.294Z,4.37
2023-03-26T17:22:38.729Z,3.40
2023-03-26T17:25:24.045Z,3.03
2023-03-26T17:28:09.160Z,2.50
2023-03-26T17:30:57.959Z,2.73
2023-03-26T17:33:34.966Z,2.30
2023-03-26T17:36:31.566Z,1.90
2023-03-26T17:39:21.506Z,2.40
2023-03-26T17:42:13.691Z,2.20
2023-03-26T17:44:47.478Z,2.37
2023-03-26T17:47:30.884Z,2.43
2023-03-26T17:50:07.389Z,2.27
2023-03-26T17:52:58.367Z,2.23
2023-03-26T17:55:33.483Z,2.00
2023-03-26T17:58:07.841Z,1.90
2023-03-26T18:00:43.424Z,2.30
2023-03-26T18:03:20.550Z,1.93
2023-03-26T18:05:52.556Z,2.33
2023-03-26T18:09:09.720Z,2.27
2023-03-26T18:12:02.422Z,2.10
2023-03-26T18:15:13.057Z,2.03
2023-03-26T18:17:46.945Z,1.53
2023-03-26T18:20:25.737Z,2.00
2023-03-26T18:22:57.932Z,2.17
2023-03-26T18:25:30.931Z,2.33
2023-03-26T18:28:02.614Z,1.87
2023-03-26T18:30:49.930Z,2.00
2023-03-26T18:33:20.399Z,2.10
2023-03-26T18:35:57.699Z,1.67
2023-03-26T18:38:35.762Z,2.40
2023-03-26T18:41:10.221Z,2.17
2023-03-26T18:43:43.737Z,2.93
2023-03-26T18:46:17.760Z,2.50
2023-03-26T18:48:49.469Z,1.97
2023-03-26T18:51:23.358Z,1.93
2023-03-26T18:53:57.750Z,2.27
2023-03-26T18:56:31.912Z,2.10
2023-03-26T18:59:03.897Z,1.50
2023-03-26T19:01:38.873Z,2.17
2023-03-26T19:04:11.200Z,2.03
2023-03-26T19:06:44.046Z,1.40
2023-03-26T19:09:28.169Z,2.13
2023-03-26T19:12:09.236Z,2.00
2023-03-26T19:14:58.523Z,1.70
2023-03-26T19:17:35.994Z,1.33
2023-03-26T19:20:08.548Z,1.77
2023-03-26T19:22:41.735Z,1.40
2023-03-26T19:25:23.399Z,2.00
2023-03-26T19:27:53.855Z,1.57
2023-03-26T19:30:32.158Z,1.50
2023-03-26T19:33:12.175Z,1.53
2023-03-26T19:35:44.277Z,1.10
2023-03-26T19:38:25.380Z,1.33
2023-03-26T19:40:58.193Z,1.47
2023-03-26T19:43:29.029Z,1.40
2023-03-26T19:46:02.418Z,1.63
2023-03-26T19:48:45.314Z,1.70
2023-03-26T19:51:24.169Z,1.77
2023-03-26T19:53:58.977Z,1.40
2023-03-26T19:56:29.818Z,1.27
2023-03-26T19:59:00.619Z,1.33
2023-03-26T20:01:33.132Z,1.37
2023-03-26T20:04:08.202Z,1.10
2023-03-26T20:06:43.710Z,1.90
2023-03-26T20:09:16.489Z,1.60
2023-03-26T20:11:47.534Z,1.23
2023-03-26T20:14:21.728Z,1.40
2023-03-26T20:16:52.316Z,1.57
2023-03-26T20:19:26.342Z,1.10
2023-03-26T20:21:56.458Z,1.10
2023-03-26T20:24:35.833Z,1.10
2023-03-26T20:27:05.885Z,1.83
2023-03-26T20:29:37.020Z,1.37
2023-03-26T20:32:09.735Z,0.93
2023-03-26T20:34:42.428Z,1.43
2023-03-26T20:37:12.338Z,1.43
2023-03-26T20:39:42.544Z,1.17
2023-03-26T20:42:16.035Z,1.43
2023-03-26T20:44:47.320Z,1.70
2023-03-26T20:47:17.495Z,1.70
2023-03-26T20:49:51.181Z,1.63
2023-03-26T20:52:23.117Z,1.60
2023-03-26T20:54:53.666Z,1.50
2023-03-26T20:57:23.787Z,1.60
2023-03-26T20:59:54.707Z,1.20
2023-03-26T21:02:24.856Z,1.80
2023-03-26T21:04:57.628Z,1.33
2023-03-26T21:07:29.162Z,1.00
2023-03-26T21:10:02.861Z,1.43
2023-03-26T21:12:36.280Z,1.57
2023-03-26T21:15:16.818Z,1.63
2023-03-26T21:17:55.189Z,1.87
2023-03-26T21:20:32.982Z,1.40
2023-03-26T21:23:13.061Z,0.80
2023-03-26T21:25:49.448Z,1.67
2023-03-26T21:28:39.763Z,1.13
2023-03-26T21:31:18.471Z,1.67
2023-03-26T21:33:49.688Z,1.53
2023-03-26T21:36:23.370Z,1.53
2023-03-26T21:38:55.069Z,0.80
2023-03-26T21:41:36.253Z,1.30
2023-03-26T21:44:06.608Z,1.37
2023-03-26T21:46:38.193Z,1.50
2023-03-26T21:49:08.767Z,1.27
2023-03-26T21:51:43.282Z,1.40
2023-03-26T21:54:24.929Z,1.27
2023-03-26T21:57:06.531Z,1.50
2023-03-26T21:59:44.288Z,1.20
2023-03-26T22:02:19.795Z,1.30
2023-03-26T22:04:55.286Z,0.80
2023-03-26T22:07:33.445Z,1.03
2023-03-26T22:10:03.313Z,1.30
2023-03-26T22:12:33.397Z,1.27
2023-03-26T22:15:05.036Z,1.27
2023-03-26T22:17:35.104Z,1.10
2023-03-26T22:20:08.055Z,1.23
2023-03-26T22:22:41.677Z,1.57
2023-03-26T22:25:13.204Z,1.17
2023-03-26T22:27:43.836Z,1.20
2023-03-26T22:30:16.652Z,1.13
2023-03-26T22:32:46.796Z,1.20
2023-03-26T22:35:16.794Z,1.60
2023-03-26T22:37:49.966Z,1.30
2023-03-26T22:40:20.812Z,1.63
2023-03-26T22:42:51.052Z,1.30
2023-03-26T22:45:21.181Z,1.20
2023-03-26T22:47:51.442Z,1.10
2023-03-26T22:50:33.228Z,1.50
2023-03-26T22:53:06.587Z,1.10
2023-03-26T22:55:36.507Z,2.00
2023-03-26T22:58:07.238Z,1.10
2023-03-26T23:00:37.240Z,1.23
2023-03-26T23:03:08.647Z,1.73
2023-03-26T23:05:38.834Z,1.30
2023-03-26T23:08:11.248Z,1.63
2023-03-26T23:10:44.777Z,1.07
2023-03-26T23:13:14.724Z,1.60
2023-03-26T23:15:45.255Z,1.50
2023-03-26T23:18:15.164Z,1.60
2023-03-26T23:20:45.409Z,1.30
2023-03-26T23:23:17.857Z,1.37
2023-03-26T23:25:48.558Z,1.40
2023-03-26T23:28:18.533Z,1.33
2023-03-26T23:30:52.617Z,1.47
2023-03-26T23:33:23.527Z,1.23
2023-03-26T23:35:56.028Z,1.47
2023-03-26T23:38:43.362Z,1.97
2023-03-26T23:41:16.124Z,1.37
2023-03-26T23:43:54.429Z,1.10
2023-03-26T23:46:26.228Z,1.40
2023-03-26T23:49:00.340Z,1.10
2023-03-26T23:51:30.424Z,1.43
2023-03-26T23:54:05.226Z,1.60
2023-03-26T23:56:35.195Z,1.43
2023-03-26T23:59:05.164Z,1.30
